sensor_id;sensor_type;location;lat;lon;timestamp;temperature;humidity
52024;DHT22;38038;45.922;13.604;2023-03-01T00:01:30;3.40;99.90
52024;DHT22;38038;45.922;13.604;2023-03-01T00:03:57;3.40;99.90
52024;DHT22;38038;45.922;13.604;2023-03-01T00:06:23;3.40;99.90
52024;DHT22;38038;45.922;13.604;2023-03-01T00:08:49;3.70;99.90
52024;DHT22;38038;45.922;13.604;2023-03-01T00:11:21;3.70;99.90
52024;DHT22;38038;45.922;13.604;2023-03-01T00:13:49;3.90;99.90
52024;DHT22;38038;45.922;13.604;2023-03-01T00:16:17;3.90;99.90
52024;DHT22;38038;45.922;13.604;2023-03-01T00:18:43;3.90;99.90
52024;DHT22;38038;45.922;13.604;2023-03-01T00:21:09;3.80;99.90
52024;DHT22;38038;45.922;13.604;2023-03-01T00:23:35;3.80;99.90
52024;DHT22;38038;45.922;13.604;2023-03-01T00:26:01;3.80;99.90
52024;DHT22;38038;45.922;13.604;2023-03-01T00:28:27;3.80;99.90
52024;DHT22;38038;45.922;13.604;2023-03-01T00:30:52;3.70;99.90
52024;DHT22;38038;45.922;13.604;2023-03-01T00:33:18;3.70;99.90
52024;DHT22;38038;45.922;13.604;2023-03-01T00:35:44;3.60;99.90
52024;DHT22;38038;45.922;13.604;2023-03-01T00:38:10;3.60;99.90
52024;DHT22;38038;45.922;13.604;2023-03-01T00:40:37;3.50;99.90
52024;DHT22;38038;45.922;13.604;2023-03-01T00:43:03;3.50;99.90
52024;DHT22;38038;45.922;13.604;2023-03-01T00:45:29;3.70;99.90
52024;DHT22;38038;45.922;13.604;2023-03-01T00:47:56;4.00;99.90
52024;DHT22;38038;45.922;13.604;2023-03-01T00:50:23;4.20;99.80
52024;DHT22;38038;45.922;13.604;2023-03-01T00:52:52;4.30;99.80
52024;DHT22;38038;45.922;13.604;2023-03-01T00:55:18;4.40;99.80
52024;DHT22;38038;45.922;13.604;2023-03-01T00:57:44;4.30;99.70
52024;DHT22;38038;45.922;13.604;2023-03-01T01:00:10;4.30;99.10
52024;DHT22;38038;45.922;13.604;2023-03-01T01:02:37;4.40;98.70
52024;DHT22;38038;45.922;13.604;2023-03-01T01:05:03;4.60;98.80
52024;DHT22;38038;45.922;13.604;2023-03-01T01:07:29;4.50;99.30
52024;DHT22;38038;45.922;13.604;2023-03-01T01:09:54;4.40;99.60
52024;DHT22;38038;45.922;13.604;2023-03-01T01:12:20;4.10;99.90
52024;DHT22;38038;45.922;13.604;2023-03-01T01:14:46;3.90;99.90
52024;DHT22;38038;45.922;13.604;2023-03-01T01:17:12;3.90;99.90
52024;DHT22;38038;45.922;13.604;2023-03-01T01:19:37;3.70;99.90
52024;DHT22;38038;45.922;13.604;2023-03-01T01:22:03;3.60;99.90
52024;DHT22;38038;45.922;13.604;2023-03-01T01:24:29;3.70;99.90
52024;DHT22;38038;45.922;13.604;2023-03-01T01:26:55;3.80;99.90
52024;DHT22;38038;45.922;13.604;2023-03-01T01:29:21;3.80;99.90
52024;DHT22;38038;45.922;13.604;2023-03-01T01:31:47;3.80;99.90
52024;DHT22;38038;45.922;13.604;2023-03-01T01:34:15;3.80;99.90
52024;DHT22;38038;45.922;13.604;2023-03-01T01:36:42;3.80;99.90
52024;DHT22;38038;45.922;13.604;2023-03-01T01:39:08;3.80;99.90
52024;DHT22;38038;45.922;13.604;2023-03-01T01:41:39;3.70;99.90
52024;DHT22;38038;45.922;13.604;2023-03-01T01:44:22;3.60;99.90
52024;DHT22;38038;45.922;13.604;2023-03-01T01:54:43;3.30;99.90
52024;DHT22;38038;45.922;13.604;2023-03-01T01:57:16;3.30;99.90
52024;DHT22;38038;45.922;13.604;2023-03-01T01:59:45;3.30;99.90
52024;DHT22;38038;45.922;13.604;2023-03-01T02:02:12;3.30;99.90
52024;DHT22;38038;45.922;13.604;2023-03-01T02:04:38;3.30;99.90
52024;DHT22;38038;45.922;13.604;2023-03-01T02:07:19;3.30;99.90
52024;DHT22;38038;45.922;13.604;2023-03-01T02:09:48;3.30;99.90
52024;DHT22;38038;45.922;13.604;2023-03-01T02:12:20;3.30;99.90
52024;DHT22;38038;45.922;13.604;2023-03-01T02:14:47;3.40;99.90
52024;DHT22;38038;45.922;13.604;2023-03-01T02:17:16;3.30;99.90
52024;DHT22;38038;45.922;13.604;2023-03-01T02:22:33;3.20;99.90
52024;DHT22;38038;45.922;13.604;2023-03-01T02:30:22;3.20;99.90
52024;DHT22;38038;45.922;13.604;2023-03-01T02:32:48;3.10;99.90
52024;DHT22;38038;45.922;13.604;2023-03-01T02:35:16;3.10;99.90
52024;DHT22;38038;45.922;13.604;2023-03-01T02:37:44;3.10;99.90
52024;DHT22;38038;45.922;13.604;2023-03-01T02:40:16;3.10;99.90
52024;DHT22;38038;45.922;13.604;2023-03-01T02:42:53;3.20;99.90
52024;DHT22;38038;45.922;13.604;2023-03-01T02:45:20;3.10;99.90
52024;DHT22;38038;45.922;13.604;2023-03-01T02:47:46;3.10;99.90
52024;DHT22;38038;45.922;13.604;2023-03-01T02:53:39;3.10;99.90
52024;DHT22;38038;45.922;13.604;2023-03-01T02:56:07;3.00;99.90
52024;DHT22;38038;45.922;13.604;2023-03-01T02:58:40;3.10;99.90
52024;DHT22;38038;45.922;13.604;2023-03-01T03:01:12;3.20;99.90
52024;DHT22;38038;45.922;13.604;2023-03-01T03:03:40;3.30;99.90
52024;DHT22;38038;45.922;13.604;2023-03-01T03:06:06;3.40;99.90
52024;DHT22;38038;45.922;13.604;2023-03-01T03:08:32;3.50;99.90
52024;DHT22;38038;45.922;13.604;2023-03-01T03:10:58;3.60;99.90
52024;DHT22;38038;45.922;13.604;2023-03-01T03:13:24;3.70;99.90
52024;DHT22;38038;45.922;13.604;2023-03-01T03:15:55;3.80;99.90
52024;DHT22;38038;45.922;13.604;2023-03-01T03:18:21;3.90;99.90
52024;DHT22;38038;45.922;13.604;2023-03-01T03:20:48;4.10;99.90
52024;DHT22;38038;45.922;13.604;2023-03-01T03:23:19;4.10;99.90
52024;DHT22;38038;45.922;13.604;2023-03-01T03:25:48;4.20;99.90
52024;DHT22;38038;45.922;13.604;2023-03-01T03:28:14;4.10;99.90
52024;DHT22;38038;45.922;13.604;2023-03-01T03:30:41;4.20;99.90
52024;DHT22;38038;45.922;13.604;2023-03-01T03:33:11;4.20;99.90
52024;DHT22;38038;45.922;13.604;2023-03-01T03:35:45;4.30;99.90
52024;DHT22;38038;45.922;13.604;2023-03-01T03:38:12;4.40;99.50
52024;DHT22;38038;45.922;13.604;2023-03-01T03:40:45;4.50;99.30
52024;DHT22;38038;45.922;13.604;2023-03-01T03:43:17;4.50;99.40
52024;DHT22;38038;45.922;13.604;2023-03-01T03:45:45;4.50;99.90
52024;DHT22;38038;45.922;13.604;2023-03-01T03:48:11;4.40;99.90
52024;DHT22;38038;45.922;13.604;2023-03-01T03:50:38;4.30;99.90
52024;DHT22;38038;45.922;13.604;2023-03-01T03:53:07;4.50;99.60
52024;DHT22;38038;45.922;13.604;2023-03-01T03:55:33;4.70;99.00
52024;DHT22;38038;45.922;13.604;2023-03-01T03:58:02;4.80;98.90
52024;DHT22;38038;45.922;13.604;2023-03-01T04:00:36;4.80;98.80
52024;DHT22;38038;45.922;13.604;2023-03-01T04:03:03;4.90;98.70
52024;DHT22;38038;45.922;13.604;2023-03-01T04:05:29;4.90;98.70
52024;DHT22;38038;45.922;13.604;2023-03-01T04:07:56;4.80;99.30
52024;DHT22;38038;45.922;13.604;2023-03-01T04:10:29;4.70;99.10
52024;DHT22;38038;45.922;13.604;2023-03-01T04:12:54;4.60;99.30
52024;DHT22;38038;45.922;13.604;2023-03-01T04:15:24;4.60;99.40
52024;DHT22;38038;45.922;13.604;2023-03-01T04:17:52;4.60;99.60
52024;DHT22;38038;45.922;13.604;2023-03-01T04:20:21;4.50;99.90
52024;DHT22;38038;45.922;13.604;2023-03-01T04:25:54;4.70;99.60
52024;DHT22;38038;45.922;13.604;2023-03-01T04:28:24;4.80;99.80
52024;DHT22;38038;45.922;13.604;2023-03-01T04:30:51;4.90;99.60
52024;DHT22;38038;45.922;13.604;2023-03-01T04:33:17;4.90;99.40
52024;DHT22;38038;45.922;13.604;2023-03-01T04:35:43;5.00;99.50
52024;DHT22;38038;45.922;13.604;2023-03-01T04:38:09;5.10;99.50
52024;DHT22;38038;45.922;13.604;2023-03-01T04:40:36;5.20;98.80
52024;DHT22;38038;45.922;13.604;2023-03-01T04:43:03;5.20;99.20
52024;DHT22;38038;45.922;13.604;2023-03-01T04:45:31;5.20;98.90
52024;DHT22;38038;45.922;13.604;2023-03-01T04:47:56;5.30;98.80
52024;DHT22;38038;45.922;13.604;2023-03-01T04:50:23;5.40;98.70
52024;DHT22;38038;45.922;13.604;2023-03-01T04:52:51;5.40;98.60
52024;DHT22;38038;45.922;13.604;2023-03-01T04:55:17;5.50;98.40
52024;DHT22;38038;45.922;13.604;2023-03-01T04:57:43;5.60;98.10
52024;DHT22;38038;45.922;13.604;2023-03-01T05:00:11;5.60;98.20
52024;DHT22;38038;45.922;13.604;2023-03-01T05:02:52;5.60;98.40
52024;DHT22;38038;45.922;13.604;2023-03-01T05:05:24;5.60;98.40
52024;DHT22;38038;45.922;13.604;2023-03-01T05:07:58;5.60;98.50
52024;DHT22;38038;45.922;13.604;2023-03-01T05:10:25;5.50;98.80
52024;DHT22;38038;45.922;13.604;2023-03-01T05:12:51;5.60;98.60
52024;DHT22;38038;45.922;13.604;2023-03-01T05:15:18;5.60;98.30
52024;DHT22;38038;45.922;13.604;2023-03-01T05:17:44;5.60;98.50
52024;DHT22;38038;45.922;13.604;2023-03-01T05:20:11;5.60;98.40
52024;DHT22;38038;45.922;13.604;2023-03-01T05:22:37;5.70;98.30
52024;DHT22;38038;45.922;13.604;2023-03-01T05:25:04;5.60;98.50
52024;DHT22;38038;45.922;13.604;2023-03-01T05:27:38;5.60;98.50
52024;DHT22;38038;45.922;13.604;2023-03-01T05:30:04;5.60;98.60
52024;DHT22;38038;45.922;13.604;2023-03-01T05:32:43;5.60;98.40
52024;DHT22;38038;45.922;13.604;2023-03-01T05:35:11;5.70;98.30
52024;DHT22;38038;45.922;13.604;2023-03-01T05:37:40;5.70;98.70
52024;DHT22;38038;45.922;13.604;2023-03-01T05:40:07;5.70;98.80
52024;DHT22;38038;45.922;13.604;2023-03-01T05:42:42;5.70;98.60
52024;DHT22;38038;45.922;13.604;2023-03-01T05:45:09;5.70;98.50
52024;DHT22;38038;45.922;13.604;2023-03-01T05:47:35;5.80;98.40
52024;DHT22;38038;45.922;13.604;2023-03-01T05:50:01;5.70;98.60
52024;DHT22;38038;45.922;13.604;2023-03-01T05:52:27;5.70;98.60
52024;DHT22;38038;45.922;13.604;2023-03-01T05:54:52;5.80;98.40
52024;DHT22;38038;45.922;13.604;2023-03-01T05:57:18;5.70;98.20
52024;DHT22;38038;45.922;13.604;2023-03-01T05:59:45;5.80;98.10
52024;DHT22;38038;45.922;13.604;2023-03-01T06:02:10;5.80;98.00
52024;DHT22;38038;45.922;13.604;2023-03-01T06:04:36;5.70;98.00
52024;DHT22;38038;45.922;13.604;2023-03-01T06:07:02;5.80;97.60
52024;DHT22;38038;45.922;13.604;2023-03-01T06:09:27;5.80;97.70
52024;DHT22;38038;45.922;13.604;2023-03-01T06:11:53;5.80;97.80
52024;DHT22;38038;45.922;13.604;2023-03-01T06:14:19;5.70;98.00
52024;DHT22;38038;45.922;13.604;2023-03-01T06:16:46;5.70;97.80
52024;DHT22;38038;45.922;13.604;2023-03-01T06:19:11;5.70;97.90
52024;DHT22;38038;45.922;13.604;2023-03-01T06:21:37;5.70;98.10
52024;DHT22;38038;45.922;13.604;2023-03-01T06:24:03;5.80;97.90
52024;DHT22;38038;45.922;13.604;2023-03-01T06:26:29;5.80;98.20
52024;DHT22;38038;45.922;13.604;2023-03-01T06:28:54;5.90;98.10
52024;DHT22;38038;45.922;13.604;2023-03-01T06:31:20;5.90;98.10
52024;DHT22;38038;45.922;13.604;2023-03-01T06:33:46;5.90;98.40
52024;DHT22;38038;45.922;13.604;2023-03-01T06:36:11;5.90;98.10
52024;DHT22;38038;45.922;13.604;2023-03-01T06:38:37;6.00;98.20
52024;DHT22;38038;45.922;13.604;2023-03-01T06:41:03;6.00;97.70
52024;DHT22;38038;45.922;13.604;2023-03-01T06:43:29;6.10;97.60
52024;DHT22;38038;45.922;13.604;2023-03-01T06:45:55;6.10;97.80
52024;DHT22;38038;45.922;13.604;2023-03-01T06:48:21;6.20;97.50
52024;DHT22;38038;45.922;13.604;2023-03-01T06:50:47;6.20;97.30
52024;DHT22;38038;45.922;13.604;2023-03-01T06:53:12;6.20;97.30
52024;DHT22;38038;45.922;13.604;2023-03-01T06:55:38;6.30;96.90
52024;DHT22;38038;45.922;13.604;2023-03-01T06:58:04;6.40;97.10
52024;DHT22;38038;45.922;13.604;2023-03-01T07:00:30;6.30;96.90
52024;DHT22;38038;45.922;13.604;2023-03-01T07:02:59;6.20;97.30
52024;DHT22;38038;45.922;13.604;2023-03-01T07:05:25;6.20;97.30
52024;DHT22;38038;45.922;13.604;2023-03-01T07:07:51;6.20;97.00
52024;DHT22;38038;45.922;13.604;2023-03-01T07:10:16;6.10;97.00
52024;DHT22;38038;45.922;13.604;2023-03-01T07:12:42;6.20;97.10
52024;DHT22;38038;45.922;13.604;2023-03-01T07:15:10;6.10;97.00
52024;DHT22;38038;45.922;13.604;2023-03-01T07:17:35;6.10;97.20
52024;DHT22;38038;45.922;13.604;2023-03-01T07:20:01;6.20;97.00
52024;DHT22;38038;45.922;13.604;2023-03-01T07:22:27;6.10;97.40
52024;DHT22;38038;45.922;13.604;2023-03-01T07:24:53;6.20;97.30
52024;DHT22;38038;45.922;13.604;2023-03-01T07:27:18;6.30;97.10
52024;DHT22;38038;45.922;13.604;2023-03-01T07:29:44;6.30;97.10
52024;DHT22;38038;45.922;13.604;2023-03-01T07:32:10;6.50;97.10
52024;DHT22;38038;45.922;13.604;2023-03-01T07:34:37;6.60;96.50
52024;DHT22;38038;45.922;13.604;2023-03-01T07:37:02;6.70;96.60
52024;DHT22;38038;45.922;13.604;2023-03-01T07:39:28;6.70;96.80
52024;DHT22;38038;45.922;13.604;2023-03-01T07:41:54;6.70;96.60
52024;DHT22;38038;45.922;13.604;2023-03-01T07:44:19;6.80;96.30
52024;DHT22;38038;45.922;13.604;2023-03-01T07:46:45;6.80;96.80
52024;DHT22;38038;45.922;13.604;2023-03-01T07:49:11;6.80;96.40
52024;DHT22;38038;45.922;13.604;2023-03-01T07:51:37;7.00;96.10
52024;DHT22;38038;45.922;13.604;2023-03-01T07:54:03;6.90;96.10
52024;DHT22;38038;45.922;13.604;2023-03-01T07:56:29;6.90;96.30
52024;DHT22;38038;45.922;13.604;2023-03-01T07:58:55;7.00;96.00
52024;DHT22;38038;45.922;13.604;2023-03-01T08:01:21;7.20;96.20
52024;DHT22;38038;45.922;13.604;2023-03-01T08:03:48;7.30;96.30
52024;DHT22;38038;45.922;13.604;2023-03-01T08:06:15;7.40;95.90
52024;DHT22;38038;45.922;13.604;2023-03-01T08:08:41;7.40;96.40
52024;DHT22;38038;45.922;13.604;2023-03-01T08:11:09;7.50;96.00
52024;DHT22;38038;45.922;13.604;2023-03-01T08:13:35;7.50;95.90
52024;DHT22;38038;45.922;13.604;2023-03-01T08:16:10;7.50;95.90
52024;DHT22;38038;45.922;13.604;2023-03-01T08:18:37;7.50;95.80
52024;DHT22;38038;45.922;13.604;2023-03-01T08:21:04;7.50;96.00
52024;DHT22;38038;45.922;13.604;2023-03-01T08:23:30;7.60;96.10
52024;DHT22;38038;45.922;13.604;2023-03-01T08:26:13;7.80;95.50
52024;DHT22;38038;45.922;13.604;2023-03-01T08:28:39;7.90;95.30
52024;DHT22;38038;45.922;13.604;2023-03-01T08:31:27;8.10;95.20
52024;DHT22;38038;45.922;13.604;2023-03-01T08:33:56;8.20;94.50
52024;DHT22;38038;45.922;13.604;2023-03-01T08:36:27;8.30;95.30
52024;DHT22;38038;45.922;13.604;2023-03-01T08:38:54;8.40;94.70
52024;DHT22;38038;45.922;13.604;2023-03-01T08:41:20;8.50;94.50
52024;DHT22;38038;45.922;13.604;2023-03-01T08:43:46;8.60;94.30
52024;DHT22;38038;45.922;13.604;2023-03-01T08:46:12;8.80;93.80
52024;DHT22;38038;45.922;13.604;2023-03-01T08:48:38;8.80;94.00
52024;DHT22;38038;45.922;13.604;2023-03-01T08:51:12;8.90;93.80
52024;DHT22;38038;45.922;13.604;2023-03-01T08:53:39;8.90;94.20
52024;DHT22;38038;45.922;13.604;2023-03-01T08:56:06;8.80;94.50
52024;DHT22;38038;45.922;13.604;2023-03-01T08:58:32;8.80;94.60
52024;DHT22;38038;45.922;13.604;2023-03-01T09:00:58;8.90;93.90
52024;DHT22;38038;45.922;13.604;2023-03-01T09:03:24;9.00;94.30
52024;DHT22;38038;45.922;13.604;2023-03-01T09:05:50;8.90;94.20
52024;DHT22;38038;45.922;13.604;2023-03-01T09:08:17;8.90;93.70
52024;DHT22;38038;45.922;13.604;2023-03-01T09:10:43;8.70;94.10
52024;DHT22;38038;45.922;13.604;2023-03-01T09:13:09;8.70;94.00
52024;DHT22;38038;45.922;13.604;2023-03-01T09:15:37;8.70;94.50
52024;DHT22;38038;45.922;13.604;2023-03-01T09:18:03;8.70;94.50
52024;DHT22;38038;45.922;13.604;2023-03-01T09:20:31;8.40;94.70
52024;DHT22;38038;45.922;13.604;2023-03-01T09:22:57;8.20;94.90
52024;DHT22;38038;45.922;13.604;2023-03-01T09:25:23;8.30;94.90
52024;DHT22;38038;45.922;13.604;2023-03-01T09:27:52;8.10;95.50
52024;DHT22;38038;45.922;13.604;2023-03-01T09:30:18;8.10;95.20
52024;DHT22;38038;45.922;13.604;2023-03-01T09:32:44;8.10;95.30
52024;DHT22;38038;45.922;13.604;2023-03-01T09:35:11;8.30;95.10
52024;DHT22;38038;45.922;13.604;2023-03-01T09:37:37;8.40;94.90
52024;DHT22;38038;45.922;13.604;2023-03-01T09:40:05;8.40;95.00
52024;DHT22;38038;45.922;13.604;2023-03-01T09:42:34;8.60;94.70
52024;DHT22;38038;45.922;13.604;2023-03-01T09:45:05;8.90;94.70
52024;DHT22;38038;45.922;13.604;2023-03-01T09:47:34;8.80;94.70
52024;DHT22;38038;45.922;13.604;2023-03-01T09:50:14;8.90;94.90
52024;DHT22;38038;45.922;13.604;2023-03-01T09:52:47;8.90;94.50
52024;DHT22;38038;45.922;13.604;2023-03-01T09:55:26;9.00;94.30
52024;DHT22;38038;45.922;13.604;2023-03-01T10:00:47;9.10;94.30
52024;DHT22;38038;45.922;13.604;2023-03-01T10:03:19;9.30;93.90
52024;DHT22;38038;45.922;13.604;2023-03-01T10:10:57;9.10;93.90
52024;DHT22;38038;45.922;13.604;2023-03-01T10:13:34;8.90;94.20
52024;DHT22;38038;45.922;13.604;2023-03-01T10:16:34;8.70;94.40
52024;DHT22;38038;45.922;13.604;2023-03-01T10:19:04;8.60;94.70
52024;DHT22;38038;45.922;13.604;2023-03-01T10:21:38;8.70;94.50
52024;DHT22;38038;45.922;13.604;2023-03-01T10:24:15;8.60;94.80
52024;DHT22;38038;45.922;13.604;2023-03-01T10:26:47;8.50;94.30
52024;DHT22;38038;45.922;13.604;2023-03-01T10:29:14;8.60;94.50
52024;DHT22;38038;45.922;13.604;2023-03-01T10:34:19;8.80;94.20
52024;DHT22;38038;45.922;13.604;2023-03-01T10:36:51;8.50;94.60
52024;DHT22;38038;45.922;13.604;2023-03-01T10:39:19;8.50;95.00
52024;DHT22;38038;45.922;13.604;2023-03-01T10:41:59;8.40;95.10
52024;DHT22;38038;45.922;13.604;2023-03-01T10:44:52;8.60;94.90
52024;DHT22;38038;45.922;13.604;2023-03-01T10:47:24;8.70;94.70
52024;DHT22;38038;45.922;13.604;2023-03-01T10:50:03;8.80;94.70
52024;DHT22;38038;45.922;13.604;2023-03-01T10:52:35;8.70;94.80
52024;DHT22;38038;45.922;13.604;2023-03-01T10:55:34;8.80;94.80
52024;DHT22;38038;45.922;13.604;2023-03-01T10:58:18;9.00;94.70
52024;DHT22;38038;45.922;13.604;2023-03-01T11:01:00;8.90;94.50
52024;DHT22;38038;45.922;13.604;2023-03-01T11:03:35;8.90;94.60
52024;DHT22;38038;45.922;13.604;2023-03-01T11:08:44;8.90;94.60
52024;DHT22;38038;45.922;13.604;2023-03-01T11:11:21;8.80;94.90
52024;DHT22;38038;45.922;13.604;2023-03-01T11:13:52;9.00;94.30
52024;DHT22;38038;45.922;13.604;2023-03-01T11:16:39;9.10;94.40
52024;DHT22;38038;45.922;13.604;2023-03-01T11:19:14;9.20;94.60
52024;DHT22;38038;45.922;13.604;2023-03-01T11:24:48;9.30;94.30
52024;DHT22;38038;45.922;13.604;2023-03-01T11:27:33;9.00;94.90
52024;DHT22;38038;45.922;13.604;2023-03-01T11:30:04;8.60;95.30
52024;DHT22;38038;45.922;13.604;2023-03-01T11:32:43;8.60;95.40
52024;DHT22;38038;45.922;13.604;2023-03-01T11:35:18;8.70;95.40
52024;DHT22;38038;45.922;13.604;2023-03-01T12:00:43;9.10;95.00
52024;DHT22;38038;45.922;13.604;2023-03-01T12:08:26;9.10;95.40
52024;DHT22;38038;45.922;13.604;2023-03-01T12:27:30;9.70;93.90
52024;DHT22;38038;45.922;13.604;2023-03-01T12:33:15;9.20;95.50
52024;DHT22;38038;45.922;13.604;2023-03-01T12:38:41;9.50;94.90
52024;DHT22;38038;45.922;13.604;2023-03-01T12:41:29;9.70;94.70
52024;DHT22;38038;45.922;13.604;2023-03-01T12:45:00;9.70;95.00
52024;DHT22;38038;45.922;13.604;2023-03-01T12:54:49;9.90;93.50
52024;DHT22;38038;45.922;13.604;2023-03-01T12:57:30;10.00;93.70
52024;DHT22;38038;45.922;13.604;2023-03-01T13:08:19;9.40;94.80
52024;DHT22;38038;45.922;13.604;2023-03-01T13:11:06;9.10;94.30
52024;DHT22;38038;45.922;13.604;2023-03-01T13:13:36;9.20;94.50
52024;DHT22;38038;45.922;13.604;2023-03-01T13:19:15;9.40;94.50
52024;DHT22;38038;45.922;13.604;2023-03-01T13:21:43;9.30;94.80
52024;DHT22;38038;45.922;13.604;2023-03-01T13:24:29;9.40;94.50
52024;DHT22;38038;45.922;13.604;2023-03-01T13:29:51;9.60;94.40
52024;DHT22;38038;45.922;13.604;2023-03-01T13:32:31;9.50;95.10
52024;DHT22;38038;45.922;13.604;2023-03-01T13:37:41;9.30;95.00
52024;DHT22;38038;45.922;13.604;2023-03-01T13:42:49;9.30;95.10
52024;DHT22;38038;45.922;13.604;2023-03-01T13:48:24;9.40;94.80
52024;DHT22;38038;45.922;13.604;2023-03-01T13:50:54;9.40;94.70
52024;DHT22;38038;45.922;13.604;2023-03-01T13:53:24;9.40;94.90
52024;DHT22;38038;45.922;13.604;2023-03-01T13:55:57;9.10;95.80
52024;DHT22;38038;45.922;13.604;2023-03-01T13:58:30;8.90;96.00
52024;DHT22;38038;45.922;13.604;2023-03-01T14:01:05;8.80;95.50
52024;DHT22;38038;45.922;13.604;2023-03-01T14:03:33;8.70;96.10
52024;DHT22;38038;45.922;13.604;2023-03-01T14:06:18;8.50;96.20
52024;DHT22;38038;45.922;13.604;2023-03-01T14:08:47;8.40;96.60
52024;DHT22;38038;45.922;13.604;2023-03-01T14:17:21;8.40;97.20
52024;DHT22;38038;45.922;13.604;2023-03-01T14:19:56;8.60;96.80
52024;DHT22;38038;45.922;13.604;2023-03-01T14:22:32;8.70;96.40
52024;DHT22;38038;45.922;13.604;2023-03-01T14:25:21;8.80;96.40
52024;DHT22;38038;45.922;13.604;2023-03-01T14:28:00;8.60;96.70
52024;DHT22;38038;45.922;13.604;2023-03-01T14:30:42;8.60;96.90
52024;DHT22;38038;45.922;13.604;2023-03-01T14:38:28;8.40;97.20
52024;DHT22;38038;45.922;13.604;2023-03-01T14:40:58;8.40;97.40
52024;DHT22;38038;45.922;13.604;2023-03-01T14:43:24;8.30;97.50
52024;DHT22;38038;45.922;13.604;2023-03-01T14:45:53;8.30;97.50
52024;DHT22;38038;45.922;13.604;2023-03-01T14:48:19;8.30;97.20
52024;DHT22;38038;45.922;13.604;2023-03-01T14:50:45;8.30;97.40
52024;DHT22;38038;45.922;13.604;2023-03-01T14:53:20;8.40;97.10
52024;DHT22;38038;45.922;13.604;2023-03-01T14:55:50;8.30;97.30
52024;DHT22;38038;45.922;13.604;2023-03-01T14:58:20;8.10;97.30
52024;DHT22;38038;45.922;13.604;2023-03-01T15:01:02;8.20;97.00
52024;DHT22;38038;45.922;13.604;2023-03-01T15:03:37;8.20;97.30
52024;DHT22;38038;45.922;13.604;2023-03-01T15:06:05;8.30;97.30
52024;DHT22;38038;45.922;13.604;2023-03-01T15:08:31;8.20;97.30
52024;DHT22;38038;45.922;13.604;2023-03-01T15:11:04;8.20;97.50
52024;DHT22;38038;45.922;13.604;2023-03-01T15:13:35;8.10;97.60
52024;DHT22;38038;45.922;13.604;2023-03-01T15:16:15;8.10;97.90
52024;DHT22;38038;45.922;13.604;2023-03-01T15:18:50;8.00;98.10
52024;DHT22;38038;45.922;13.604;2023-03-01T15:21:19;8.00;98.10
52024;DHT22;38038;45.922;13.604;2023-03-01T15:23:54;8.00;97.90
52024;DHT22;38038;45.922;13.604;2023-03-01T15:26:26;8.00;98.10
52024;DHT22;38038;45.922;13.604;2023-03-01T15:28:55;8.10;98.30
52024;DHT22;38038;45.922;13.604;2023-03-01T15:31:25;8.10;98.10
52024;DHT22;38038;45.922;13.604;2023-03-01T15:33:51;8.00;98.60
52024;DHT22;38038;45.922;13.604;2023-03-01T15:36:44;7.90;98.80
52024;DHT22;38038;45.922;13.604;2023-03-01T15:39:31;7.80;99.00
52024;DHT22;38038;45.922;13.604;2023-03-01T15:41:58;7.70;99.50
52024;DHT22;38038;45.922;13.604;2023-03-01T15:44:33;7.80;99.30
52024;DHT22;38038;45.922;13.604;2023-03-01T15:47:00;7.90;98.70
52024;DHT22;38038;45.922;13.604;2023-03-01T15:49:41;8.00;98.30
52024;DHT22;38038;45.922;13.604;2023-03-01T15:52:26;8.00;98.60
52024;DHT22;38038;45.922;13.604;2023-03-01T15:55:00;8.10;98.50
52024;DHT22;38038;45.922;13.604;2023-03-01T15:57:26;8.10;98.30
52024;DHT22;38038;45.922;13.604;2023-03-01T15:59:52;8.00;98.50
52024;DHT22;38038;45.922;13.604;2023-03-01T16:02:18;8.00;98.50
52024;DHT22;38038;45.922;13.604;2023-03-01T16:04:47;8.00;98.70
52024;DHT22;38038;45.922;13.604;2023-03-01T16:07:14;8.00;98.80
52024;DHT22;38038;45.922;13.604;2023-03-01T16:09:40;8.00;98.90
52024;DHT22;38038;45.922;13.604;2023-03-01T16:12:08;7.90;99.20
52024;DHT22;38038;45.922;13.604;2023-03-01T16:14:34;8.00;99.00
52024;DHT22;38038;45.922;13.604;2023-03-01T16:17:00;7.90;99.00
52024;DHT22;38038;45.922;13.604;2023-03-01T16:19:25;8.00;99.10
52024;DHT22;38038;45.922;13.604;2023-03-01T16:21:51;8.00;99.10
52024;DHT22;38038;45.922;13.604;2023-03-01T16:24:17;8.00;98.90
52024;DHT22;38038;45.922;13.604;2023-03-01T16:26:43;8.00;98.90
52024;DHT22;38038;45.922;13.604;2023-03-01T16:29:09;8.00;98.70
52024;DHT22;38038;45.922;13.604;2023-03-01T16:31:34;7.90;98.90
52024;DHT22;38038;45.922;13.604;2023-03-01T16:34:00;7.90;98.90
52024;DHT22;38038;45.922;13.604;2023-03-01T16:36:27;7.90;99.00
52024;DHT22;38038;45.922;13.604;2023-03-01T16:38:54;7.80;99.30
52024;DHT22;38038;45.922;13.604;2023-03-01T16:41:22;7.80;99.30
52024;DHT22;38038;45.922;13.604;2023-03-01T16:43:49;7.80;99.60
52024;DHT22;38038;45.922;13.604;2023-03-01T16:46:18;7.70;99.70
52024;DHT22;38038;45.922;13.604;2023-03-01T16:48:45;7.80;99.90
52024;DHT22;38038;45.922;13.604;2023-03-01T16:51:11;7.70;99.90
52024;DHT22;38038;45.922;13.604;2023-03-01T16:53:38;7.60;99.90
52024;DHT22;38038;45.922;13.604;2023-03-01T16:56:07;7.50;99.90
52024;DHT22;38038;45.922;13.604;2023-03-01T16:58:37;7.60;99.90
52024;DHT22;38038;45.922;13.604;2023-03-01T17:01:15;7.60;99.90
52024;DHT22;38038;45.922;13.604;2023-03-01T17:03:42;7.60;99.90
52024;DHT22;38038;45.922;13.604;2023-03-01T17:06:13;7.60;99.90
52024;DHT22;38038;45.922;13.604;2023-03-01T17:08:39;7.60;99.90
52024;DHT22;38038;45.922;13.604;2023-03-01T17:11:11;7.60;99.90
52024;DHT22;38038;45.922;13.604;2023-03-01T17:13:38;7.60;99.90
52024;DHT22;38038;45.922;13.604;2023-03-01T17:16:05;7.60;99.90
52024;DHT22;38038;45.922;13.604;2023-03-01T17:18:32;7.50;99.90
52024;DHT22;38038;45.922;13.604;2023-03-01T17:20:58;7.60;99.90
52024;DHT22;38038;45.922;13.604;2023-03-01T17:23:25;7.60;99.90
52024;DHT22;38038;45.922;13.604;2023-03-01T17:25:52;7.50;99.90
52024;DHT22;38038;45.922;13.604;2023-03-01T17:28:23;7.50;99.90
52024;DHT22;38038;45.922;13.604;2023-03-01T17:30:49;7.50;99.90
52024;DHT22;38038;45.922;13.604;2023-03-01T17:33:15;7.50;99.90
52024;DHT22;38038;45.922;13.604;2023-03-01T17:35:41;7.50;99.90
52024;DHT22;38038;45.922;13.604;2023-03-01T17:38:07;7.50;99.90
52024;DHT22;38038;45.922;13.604;2023-03-01T17:40:33;7.50;99.90
52024;DHT22;38038;45.922;13.604;2023-03-01T17:43:00;7.50;99.90
52024;DHT22;38038;45.922;13.604;2023-03-01T17:45:26;7.50;99.90
52024;DHT22;38038;45.922;13.604;2023-03-01T17:47:52;7.50;99.90
52024;DHT22;38038;45.922;13.604;2023-03-01T17:50:18;7.50;99.90
52024;DHT22;38038;45.922;13.604;2023-03-01T17:52:44;7.50;99.90
52024;DHT22;38038;45.922;13.604;2023-03-01T17:55:10;7.50;99.90